Time;durP1;ratioP1;P1;durP2;ratioP2;P2;SDS_P1;SDS_P2;PMS_P1;PMS_P2;Temp;Humidity;BMP_temperature;BMP_pressure;BME280_temperature;BME280_humidity;BME280_pressure;Samples;Min_cycle;Max_cycle;Signal;HPM_P1;HPM_P2
2021/11/05 00:02:29;;;;;;;11.37;7.60;;;;;;;;;;4938057;28;20626;-86
2021/11/05 00:05:34;;;;;;;10.67;7.20;;;;;;;;;;4927527;29;20548;-86
2021/11/05 00:08:38;;;;;;;9.53;6.93;;;;;;;;;;4948551;29;20947;-86
2021/11/05 00:11:42;;;;;;;9.87;7.63;;;;;;;;;;4937429;28;20552;-86
2021/11/05 00:14:46;;;;;;;10.23;7.57;;;;;;;;;;4948518;29;20543;-86
2021/11/05 00:17:50;;;;;;;9.50;7.23;;;;;;;;;;4948537;29;20599;-86
2021/11/05 00:20:54;;;;;;;8.60;7.37;;;;;;;;;;4928341;29;20614;-86
2021/11/05 00:23:59;;;;;;;9.07;6.50;;;;;;;;;;4948460;29;20610;-86
2021/11/05 00:27:03;;;;;;;9.50;7.17;;;;;;;;;;4938630;29;20183;-86
2021/11/05 00:30:11;;;;;;;8.87;7.27;;;;;;;;;;4952441;29;20540;-86
2021/11/05 00:33:15;;;;;;;9.03;7.30;;;;;;;;;;4937392;29;20614;-86
2021/11/05 00:36:19;;;;;;;9.47;7.20;;;;;;;;;;4938014;29;21074;-86
2021/11/05 00:39:24;;;;;;;9.50;7.70;;;;;;;;;;4936753;29;20560;-86
2021/11/05 00:42:28;;;;;;;8.67;6.90;;;;;;;;;;4926382;28;20630;-86
2021/11/05 00:45:33;;;;;;;8.70;6.90;;;;;;;;;;4937551;29;20553;-86
2021/11/05 00:48:36;;;;;;;8.50;6.47;;;;;;;;;;4937391;29;20611;-86
2021/11/05 00:51:40;;;;;;;10.93;7.53;;;;;;;;;;4936374;28;20552;-86
2021/11/05 00:54:44;;;;;;;9.10;7.20;;;;;;;;;;4926072;29;20560;-86
2021/11/05 00:57:49;;;;;;;9.90;7.63;;;;;;;;;;4937390;29;20543;-86
2021/11/05 01:00:53;;;;;;;10.90;7.43;;;;;;;;;;4926578;29;20543;-86
2021/11/05 01:03:57;;;;;;;9.63;7.80;;;;;;;;;;4926407;29;21106;-86
2021/11/05 01:07:01;;;;;;;9.03;7.17;;;;;;;;;;4937016;29;20539;-86
2021/11/05 01:10:07;;;;;;;9.90;7.63;;;;;;;;;;4958432;29;20591;-86
2021/11/05 01:13:11;;;;;;;11.93;7.73;;;;;;;;;;4935987;29;20631;-86
2021/11/05 01:16:15;;;;;;;9.30;7.30;;;;;;;;;;4936573;29;20548;-86
2021/11/05 01:19:19;;;;;;;9.63;7.40;;;;;;;;;;4936504;29;20556;-86
2021/11/05 01:22:23;;;;;;;10.80;7.67;;;;;;;;;;4936214;28;21005;-86
2021/11/05 01:25:27;;;;;;;9.87;7.13;;;;;;;;;;4936377;29;21113;-86
2021/11/05 01:28:32;;;;;;;9.17;7.40;;;;;;;;;;4925736;29;20600;-86
2021/11/05 01:31:36;;;;;;;9.90;7.27;;;;;;;;;;4947201;28;20552;-87
2021/11/05 01:34:40;;;;;;;10.07;7.03;;;;;;;;;;4946998;29;21180;-86
2021/11/05 01:37:45;;;;;;;9.30;7.40;;;;;;;;;;4935875;29;20551;-86
2021/11/05 01:40:49;;;;;;;9.57;7.07;;;;;;;;;;4935195;29;20560;-86
2021/11/05 01:43:53;;;;;;;11.03;8.23;;;;;;;;;;4924239;29;20622;-86
2021/11/05 01:46:57;;;;;;;11.47;8.20;;;;;;;;;;4924438;29;20556;-86
2021/11/05 01:50:03;;;;;;;11.50;7.97;;;;;;;;;;4934828;29;21141;-86
2021/11/05 01:53:08;;;;;;;11.10;7.63;;;;;;;;;;4934776;29;20638;-86
2021/11/05 01:56:12;;;;;;;11.30;8.10;;;;;;;;;;4934971;29;20555;-86
2021/11/05 01:59:32;;;;;;;9.50;7.73;;;;;;;;;;4924844;29;21075;-86
2021/11/05 02:02:36;;;;;;;10.07;8.07;;;;;;;;;;4957863;29;20622;-87
2021/11/05 02:05:40;;;;;;;12.23;8.40;;;;;;;;;;4946471;29;20556;-86
2021/11/05 02:08:45;;;;;;;10.53;7.63;;;;;;;;;;4946481;29;20599;-86
2021/11/05 02:11:53;;;;;;;11.07;8.40;;;;;;;;;;4935135;28;21177;-86
2021/11/05 02:14:58;;;;;;;10.60;7.63;;;;;;;;;;4935599;29;20548;-86
2021/11/05 02:18:03;;;;;;;10.03;7.97;;;;;;;;;;4935324;29;20547;-86
2021/11/05 02:21:13;;;;;;;9.73;7.77;;;;;;;;;;4935248;29;20188;-86
2021/11/05 02:24:18;;;;;;;11.17;8.13;;;;;;;;;;4946060;29;20556;-86
2021/11/05 02:27:23;;;;;;;11.67;7.97;;;;;;;;;;4946181;29;20599;-86
2021/11/05 02:30:27;;;;;;;12.00;8.43;;;;;;;;;;4946158;29;20603;-86
2021/11/05 02:33:31;;;;;;;12.07;8.73;;;;;;;;;;4934968;29;20626;-86
2021/11/05 02:36:35;;;;;;;12.63;8.20;;;;;;;;;;4934996;29;20184;-86
2021/11/05 02:39:40;;;;;;;10.33;7.83;;;;;;;;;;4935359;29;20907;-86
2021/11/05 02:42:44;;;;;;;12.67;8.47;;;;;;;;;;4935114;29;20634;-86
2021/11/05 02:45:50;;;;;;;10.10;7.67;;;;;;;;;;4946023;29;20544;-86
2021/11/05 02:48:58;;;;;;;12.00;8.73;;;;;;;;;;4923839;29;20227;-86
2021/11/05 02:52:02;;;;;;;12.33;8.20;;;;;;;;;;4935178;28;20627;-86
2021/11/05 02:55:08;;;;;;;13.20;8.30;;;;;;;;;;4935018;29;20179;-86
2021/11/05 02:58:14;;;;;;;12.00;8.67;;;;;;;;;;4934176;29;20607;-86
2021/11/05 03:01:19;;;;;;;10.53;7.90;;;;;;;;;;4936350;29;20195;-86
2021/11/05 03:04:23;;;;;;;13.13;8.07;;;;;;;;;;4949057;29;20618;-86
2021/11/05 03:07:27;;;;;;;11.13;7.37;;;;;;;;;;4938766;29;20511;-86
2021/11/05 03:10:32;;;;;;;10.70;7.50;;;;;;;;;;4938849;29;20606;-86
2021/11/05 03:13:36;;;;;;;9.23;7.20;;;;;;;;;;4928324;29;20219;-86
2021/11/05 03:16:41;;;;;;;8.67;7.07;;;;;;;;;;4940045;29;20179;-86
2021/11/05 03:19:45;;;;;;;9.93;7.03;;;;;;;;;;4929055;29;20176;-86
2021/11/05 03:22:50;;;;;;;9.13;7.10;;;;;;;;;;4929072;29;20223;-87
2021/11/05 03:25:54;;;;;;;8.57;7.30;;;;;;;;;;4950641;29;20179;-86
2021/11/05 03:28:58;;;;;;;9.70;7.33;;;;;;;;;;4939108;29;20207;-86
2021/11/05 03:32:02;;;;;;;9.53;7.40;;;;;;;;;;4939889;28;20214;-86
2021/11/05 03:35:08;;;;;;;12.97;7.83;;;;;;;;;;4939317;29;20187;-86
2021/11/05 03:38:12;;;;;;;10.20;7.90;;;;;;;;;;4928754;29;20179;-86
2021/11/05 03:41:18;;;;;;;10.10;7.60;;;;;;;;;;4939293;29;20172;-86
2021/11/05 03:44:22;;;;;;;10.00;7.50;;;;;;;;;;4940561;29;20183;-86
2021/11/05 03:47:26;;;;;;;11.17;7.37;;;;;;;;;;4939290;29;20184;-86
2021/11/05 03:50:30;;;;;;;8.77;7.33;;;;;;;;;;4950340;29;20211;-86
2021/11/05 03:53:35;;;;;;;11.17;7.53;;;;;;;;;;4931545;29;20231;-86
2021/11/05 03:56:40;;;;;;;12.17;7.17;;;;;;;;;;4940283;29;20191;-87
2021/11/05 03:59:43;;;;;;;10.17;7.00;;;;;;;;;;4939658;29;20180;-86
2021/11/05 04:02:48;;;;;;;9.03;7.27;;;;;;;;;;4939534;29;20552;-87
2021/11/05 04:05:52;;;;;;;8.80;7.20;;;;;;;;;;4938876;29;20179;-87
2021/11/05 04:08:57;;;;;;;10.50;7.60;;;;;;;;;;4935371;29;20555;-86
2021/11/05 04:12:01;;;;;;;10.30;7.20;;;;;;;;;;4938286;28;20223;-87
2021/11/05 04:15:05;;;;;;;10.60;8.00;;;;;;;;;;4926058;29;20183;-85
2021/11/05 04:18:10;;;;;;;10.47;7.57;;;;;;;;;;4923576;29;20536;-85
2021/11/05 04:21:14;;;;;;;10.07;7.57;;;;;;;;;;4936883;29;20183;-85
2021/11/05 04:24:19;;;;;;;9.50;7.57;;;;;;;;;;4945617;29;20192;-85
2021/11/05 04:27:23;;;;;;;11.30;7.97;;;;;;;;;;4924078;29;20187;-86
2021/11/05 04:30:27;;;;;;;11.63;7.60;;;;;;;;;;4937848;29;20219;-87
2021/11/05 04:33:31;;;;;;;12.03;8.53;;;;;;;;;;4935391;29;20223;-87
2021/11/05 04:36:36;;;;;;;11.70;8.23;;;;;;;;;;4924032;29;20191;-86
2021/11/05 04:39:40;;;;;;;10.10;8.20;;;;;;;;;;4923950;29;20179;-87
2021/11/05 04:42:43;;;;;;;12.80;9.07;;;;;;;;;;4935266;29;20219;-86
2021/11/05 04:45:48;;;;;;;12.80;8.43;;;;;;;;;;4924273;29;20180;-87
2021/11/05 04:48:52;;;;;;;14.20;8.87;;;;;;;;;;4924230;29;20176;-86
2021/11/05 04:51:56;;;;;;;13.10;9.13;;;;;;;;;;4935356;29;20219;-86
2021/11/05 04:55:00;;;;;;;13.03;9.57;;;;;;;;;;4924181;29;20187;-86
2021/11/05 04:58:04;;;;;;;12.50;8.43;;;;;;;;;;4924072;29;20634;-86
2021/11/05 05:01:08;;;;;;;12.47;8.87;;;;;;;;;;4923849;29;20184;-87
2021/11/05 05:04:13;;;;;;;12.07;8.50;;;;;;;;;;4923210;29;20179;-87
2021/11/05 05:07:17;;;;;;;14.57;9.00;;;;;;;;;;4934912;29;20179;-87
2021/11/05 05:10:21;;;;;;;11.53;8.90;;;;;;;;;;4933983;29;20559;-86
2021/11/05 05:13:25;;;;;;;12.63;9.00;;;;;;;;;;4923207;29;20226;-86
2021/11/05 05:16:29;;;;;;;11.97;8.30;;;;;;;;;;4934135;29;20202;-86
2021/11/05 05:19:35;;;;;;;10.80;8.07;;;;;;;;;;4934070;29;20196;-87
2021/11/05 05:22:39;;;;;;;10.93;8.53;;;;;;;;;;4934624;29;20226;-86
2021/11/05 05:25:44;;;;;;;11.73;8.03;;;;;;;;;;4945598;29;20187;-87
2021/11/05 05:28:48;;;;;;;10.67;8.40;;;;;;;;;;4923313;29;20184;-86
2021/11/05 05:31:52;;;;;;;10.27;7.77;;;;;;;;;;4933932;29;20559;-87
2021/11/05 05:34:56;;;;;;;12.73;9.20;;;;;;;;;;4923021;29;20191;-87
2021/11/05 05:38:01;;;;;;;12.60;8.37;;;;;;;;;;4923382;29;20183;-87
2021/11/05 05:41:05;;;;;;;11.97;8.43;;;;;;;;;;4933526;29;20180;-87
2021/11/05 05:44:34;;;;;;;10.97;8.50;;;;;;;;;;4922902;29;20191;-87
2021/11/05 05:48:29;;;;;;;10.93;7.73;;;;;;;;;;4937544;29;20643;-86
2021/11/05 05:51:42;;;;;;;9.63;7.67;;;;;;;;;;4922609;29;20509;-86
2021/11/05 05:55:20;;;;;;;7.87;6.47;;;;;;;;;;4928026;29;20754;-87
2021/11/05 05:58:58;;;;;;;9.97;7.30;;;;;;;;;;4926303;29;20615;-87
2021/11/05 06:02:27;;;;;;;8.87;6.77;;;;;;;;;;4937184;29;20610;-87
2021/11/05 06:05:53;;;;;;;9.90;6.70;;;;;;;;;;4925311;29;20180;-87
2021/11/05 06:09:27;;;;;;;9.30;6.07;;;;;;;;;;4947736;29;20188;-87
2021/11/05 06:12:35;;;;;;;10.27;7.17;;;;;;;;;;4922896;29;20219;-87
2021/11/05 06:15:39;;;;;;;8.07;6.80;;;;;;;;;;4922788;29;20183;-87
2021/11/05 06:18:43;;;;;;;10.57;7.77;;;;;;;;;;4933196;29;20187;-87
2021/11/05 06:21:48;;;;;;;9.77;7.50;;;;;;;;;;4922250;29;20179;-87
2021/11/05 06:24:53;;;;;;;10.20;8.03;;;;;;;;;;4933007;29;20188;-87
2021/11/05 06:27:57;;;;;;;12.53;10.10;;;;;;;;;;4933402;29;20250;-87
2021/11/05 06:31:01;;;;;;;12.47;9.43;;;;;;;;;;4944104;29;20212;-86
2021/11/05 06:34:05;;;;;;;10.90;8.43;;;;;;;;;;4940862;29;20571;-87
2021/11/05 06:37:09;;;;;;;9.20;7.17;;;;;;;;;;4916166;29;20188;-87
2021/11/05 06:40:14;;;;;;;10.80;7.80;;;;;;;;;;4919168;29;20191;-87
2021/11/05 06:43:19;;;;;;;11.37;8.63;;;;;;;;;;4926498;29;20223;-87
2021/11/05 06:46:23;;;;;;;11.20;8.27;;;;;;;;;;4927417;29;20184;-87
2021/11/05 06:49:27;;;;;;;11.70;8.83;;;;;;;;;;4919632;29;20184;-87
2021/11/05 06:52:31;;;;;;;11.37;9.10;;;;;;;;;;4932353;29;20223;-87
2021/11/05 06:55:36;;;;;;;11.10;7.97;;;;;;;;;;4917165;29;20192;-87
2021/11/05 06:58:41;;;;;;;12.37;8.63;;;;;;;;;;4936085;29;20199;-87
2021/11/05 07:01:45;;;;;;;12.47;9.60;;;;;;;;;;4927764;29;20203;-87
2021/11/05 07:04:49;;;;;;;13.93;9.33;;;;;;;;;;4926202;29;20192;-87
2021/11/05 07:07:54;;;;;;;9.83;8.50;;;;;;;;;;4918837;29;20528;-87
2021/11/05 07:10:59;;;;;;;12.70;9.73;;;;;;;;;;4919657;29;20219;-87
2021/11/05 07:14:03;;;;;;;13.53;9.40;;;;;;;;;;4927200;29;20203;-86
2021/11/05 07:17:07;;;;;;;11.40;9.47;;;;;;;;;;4927104;29;20184;-86
2021/11/05 07:20:12;;;;;;;14.33;9.87;;;;;;;;;;4929855;29;20183;-86
2021/11/05 07:23:16;;;;;;;13.43;9.73;;;;;;;;;;4914258;29;20711;-87
2021/11/05 07:26:22;;;;;;;13.27;9.60;;;;;;;;;;4913826;29;20651;-87
2021/11/05 07:29:27;;;;;;;15.10;10.90;;;;;;;;;;4927539;29;20184;-87
2021/11/05 07:32:31;;;;;;;12.87;9.97;;;;;;;;;;4929142;29;20219;-86
2021/11/05 07:35:35;;;;;;;13.50;9.97;;;;;;;;;;4936147;29;20184;-86
2021/11/05 07:38:40;;;;;;;12.07;9.70;;;;;;;;;;4923988;29;20211;-86
2021/11/05 07:41:44;;;;;;;11.13;8.43;;;;;;;;;;4936062;29;20196;-86
2021/11/05 07:44:49;;;;;;;12.63;9.10;;;;;;;;;;4925545;29;20183;-86
2021/11/05 07:47:55;;;;;;;11.47;8.90;;;;;;;;;;4935049;29;20183;-85
2021/11/05 07:50:59;;;;;;;12.00;9.87;;;;;;;;;;4925044;29;20208;-85
2021/11/05 07:54:04;;;;;;;11.57;9.57;;;;;;;;;;4923207;29;20203;-86
2021/11/05 07:57:08;;;;;;;11.53;9.07;;;;;;;;;;4927382;29;20635;-86
2021/11/05 08:00:14;;;;;;;12.43;9.57;;;;;;;;;;4916715;29;20176;-86
2021/11/05 08:03:19;;;;;;;11.33;9.13;;;;;;;;;;4927224;29;20216;-86
2021/11/05 08:06:23;;;;;;;11.93;8.97;;;;;;;;;;4906072;29;20196;-86
2021/11/05 08:09:28;;;;;;;12.53;9.57;;;;;;;;;;4927385;29;20204;-86
2021/11/05 08:12:32;;;;;;;13.67;11.13;;;;;;;;;;4927361;29;20216;-86
2021/11/05 08:15:37;;;;;;;10.70;8.53;;;;;;;;;;4938182;29;20184;-86
2021/11/05 08:18:43;;;;;;;14.93;8.83;;;;;;;;;;4938099;29;20204;-87
2021/11/05 08:21:47;;;;;;;10.80;8.43;;;;;;;;;;4937920;29;20200;-88
2021/11/05 08:24:52;;;;;;;11.47;8.67;;;;;;;;;;4926719;29;20200;-86
2021/11/05 08:27:56;;;;;;;11.53;9.00;;;;;;;;;;4927218;29;20188;-86
2021/11/05 08:31:00;;;;;;;23.87;14.93;;;;;;;;;;4926895;29;20227;-86
2021/11/05 08:34:06;;;;;;;39.67;19.67;;;;;;;;;;4915911;29;20529;-86
2021/11/05 08:37:11;;;;;;;45.67;24.27;;;;;;;;;;4916214;29;20180;-87
2021/11/05 08:40:15;;;;;;;24.80;15.87;;;;;;;;;;4926971;29;20188;-86
2021/11/05 08:43:29;;;;;;;49.90;28.50;;;;;;;;;;4926800;29;20224;-86
2021/11/05 08:46:34;;;;;;;34.63;22.27;;;;;;;;;;4926993;29;20196;-86
2021/11/05 08:49:38;;;;;;;15.17;9.77;;;;;;;;;;4904947;29;20203;-87
2021/11/05 08:52:43;;;;;;;19.40;13.57;;;;;;;;;;4926847;29;20208;-86
2021/11/05 08:55:47;;;;;;;11.60;9.10;;;;;;;;;;4905254;29;20180;-86
2021/11/05 08:58:51;;;;;;;17.50;11.23;;;;;;;;;;4915616;29;20184;-87
2021/11/05 09:01:56;;;;;;;13.17;9.83;;;;;;;;;;4915853;29;20215;-87
2021/11/05 09:04:59;;;;;;;11.43;8.87;;;;;;;;;;4927191;29;20180;-87
2021/11/05 09:08:04;;;;;;;19.17;14.83;;;;;;;;;;4927006;29;20183;-87
2021/11/05 09:11:08;;;;;;;13.30;11.90;;;;;;;;;;4915221;29;20220;-87
2021/11/05 09:14:12;;;;;;;8.50;6.97;;;;;;;;;;4926724;29;20203;-87
2021/11/05 09:17:17;;;;;;;8.13;6.90;;;;;;;;;;4926478;29;20204;-87
2021/11/05 09:20:21;;;;;;;8.27;6.03;;;;;;;;;;4904729;29;20636;-86
2021/11/05 09:23:25;;;;;;;9.67;6.57;;;;;;;;;;4915120;29;20695;-87
2021/11/05 09:26:30;;;;;;;8.57;5.73;;;;;;;;;;4915593;29;20639;-87
2021/11/05 09:29:34;;;;;;;9.63;6.40;;;;;;;;;;4915436;29;20188;-87
2021/11/05 09:32:38;;;;;;;8.73;6.73;;;;;;;;;;4915595;29;20703;-87
2021/11/05 09:35:42;;;;;;;7.40;6.37;;;;;;;;;;4915030;29;20184;-87
2021/11/05 09:38:47;;;;;;;7.43;6.10;;;;;;;;;;4915366;29;20192;-88
2021/11/05 09:41:51;;;;;;;6.27;5.13;;;;;;;;;;4926286;29;20211;-87
2021/11/05 09:44:55;;;;;;;6.50;5.30;;;;;;;;;;4904306;29;20184;-87
2021/11/05 09:48:00;;;;;;;6.20;4.97;;;;;;;;;;4925870;29;20200;-87
2021/11/05 09:51:07;;;;;;;8.77;5.00;;;;;;;;;;4936661;29;20224;-87
2021/11/05 09:54:16;;;;;;;7.87;4.67;;;;;;;;;;4914589;29;20521;-88
2021/11/05 09:57:20;;;;;;;5.53;4.30;;;;;;;;;;4925468;29;20193;-87
2021/11/05 10:00:26;;;;;;;7.80;6.10;;;;;;;;;;4904321;29;20180;-86
2021/11/05 10:03:31;;;;;;;6.80;5.77;;;;;;;;;;4915005;29;20215;-87
2021/11/05 10:06:36;;;;;;;6.87;4.67;;;;;;;;;;4904024;29;20188;-87
2021/11/05 10:09:46;;;;;;;6.17;5.07;;;;;;;;;;4914534;29;20192;-87
2021/11/05 10:12:57;;;;;;;6.83;5.17;;;;;;;;;;4935856;29;20696;-86
2021/11/05 10:16:01;;;;;;;5.60;4.80;;;;;;;;;;4925486;29;20184;-87
2021/11/05 10:19:06;;;;;;;5.87;4.80;;;;;;;;;;4914616;29;20184;-87
2021/11/05 10:22:34;;;;;;;5.13;4.63;;;;;;;;;;4925193;29;20223;-87
2021/11/05 10:25:44;;;;;;;4.73;4.13;;;;;;;;;;4937029;29;20529;-86
2021/11/05 10:28:48;;;;;;;5.00;4.50;;;;;;;;;;4925620;29;20184;-86
2021/11/05 10:32:19;;;;;;;6.73;5.83;;;;;;;;;;4903937;29;20593;-87
2021/11/05 10:35:24;;;;;;;4.87;4.23;;;;;;;;;;4925422;29;20520;-86
2021/11/05 10:38:30;;;;;;;5.03;4.40;;;;;;;;;;4904122;29;20188;-86
2021/11/05 10:41:37;;;;;;;5.57;4.20;;;;;;;;;;4925381;29;20631;-87
2021/11/05 10:45:19;;;;;;;4.67;4.03;;;;;;;;;;4914625;29;20185;-86
2021/11/05 10:48:28;;;;;;;4.10;3.70;;;;;;;;;;4925329;29;20180;-87
2021/11/05 10:51:34;;;;;;;4.57;3.97;;;;;;;;;;4925445;29;20204;-86
2021/11/05 10:54:58;;;;;;;5.67;3.70;;;;;;;;;;4925251;29;20184;-86
2021/11/05 10:58:02;;;;;;;5.20;4.40;;;;;;;;;;4925451;29;20640;-87
2021/11/05 11:01:10;;;;;;;6.37;5.77;;;;;;;;;;4913901;29;20636;-86
2021/11/05 11:04:14;;;;;;;6.43;4.90;;;;;;;;;;4914515;29;20180;-86
2021/11/05 11:07:34;;;;;;;5.20;4.67;;;;;;;;;;4925022;29;20204;-86
2021/11/05 11:10:39;;;;;;;3.83;3.43;;;;;;;;;;4903667;29;20189;-87
2021/11/05 11:13:45;;;;;;;4.87;3.80;;;;;;;;;;4913931;29;20212;-86
2021/11/05 11:16:55;;;;;;;3.47;3.07;;;;;;;;;;4914036;29;20176;-87
2021/11/05 11:19:59;;;;;;;3.80;3.30;;;;;;;;;;4924754;29;20184;-87
2021/11/05 11:23:03;;;;;;;3.90;3.30;;;;;;;;;;4939619;23;20586;-86
2021/11/05 11:26:08;;;;;;;3.60;3.30;;;;;;;;;;4928209;29;20176;-86
2021/11/05 11:29:14;;;;;;;4.50;3.23;;;;;;;;;;4917356;29;20180;-86
2021/11/05 11:32:18;;;;;;;4.00;3.30;;;;;;;;;;4925645;29;20239;-86
2021/11/05 11:35:23;;;;;;;4.00;3.60;;;;;;;;;;4925494;29;20183;-86
2021/11/05 11:38:27;;;;;;;5.63;4.30;;;;;;;;;;4936090;29;20183;-86
2021/11/05 11:41:33;;;;;;;4.60;3.60;;;;;;;;;;4925620;29;20171;-86
2021/11/05 11:44:38;;;;;;;4.97;3.80;;;;;;;;;;4936512;29;20622;-86
2021/11/05 11:47:49;;;;;;;10.53;6.87;;;;;;;;;;4936333;29;20183;-86
2021/11/05 11:51:23;;;;;;;7.67;5.97;;;;;;;;;;4925652;29;20188;-86
2021/11/05 11:54:36;;;;;;;3.50;3.20;;;;;;;;;;4925872;29;20188;-86
2021/11/05 11:57:40;;;;;;;4.33;3.90;;;;;;;;;;4925940;29;20192;-86
2021/11/05 12:00:47;;;;;;;6.70;3.40;;;;;;;;;;4925260;29;20639;-86
2021/11/05 12:03:57;;;;;;;3.60;3.13;;;;;;;;;;4924633;29;20215;-86
2021/11/05 12:07:04;;;;;;;4.90;3.00;;;;;;;;;;4924835;29;20195;-86
2021/11/05 12:10:29;;;;;;;3.53;3.00;;;;;;;;;;4946292;29;20187;-86
2021/11/05 12:13:36;;;;;;;3.87;3.47;;;;;;;;;;4924615;29;20219;-86
2021/11/05 12:16:42;;;;;;;3.37;2.53;;;;;;;;;;4924814;29;20188;-85
2021/11/05 12:19:46;;;;;;;3.33;2.50;;;;;;;;;;4924264;29;20199;-85
2021/11/05 12:23:09;;;;;;;2.27;1.90;;;;;;;;;;4924288;29;20226;-86
2021/11/05 12:26:32;;;;;;;1.90;1.70;;;;;;;;;;4935546;29;20184;-86
2021/11/05 12:29:37;;;;;;;2.07;1.87;;;;;;;;;;4935423;29;20192;-86
2021/11/05 12:32:50;;;;;;;2.27;2.07;;;;;;;;;;4946310;28;20227;-86
2021/11/05 12:35:54;;;;;;;3.70;2.80;;;;;;;;;;4946636;29;20183;-85
2021/11/05 12:39:04;;;;;;;2.13;1.90;;;;;;;;;;4924757;29;20183;-86
2021/11/05 12:42:15;;;;;;;1.70;1.60;;;;;;;;;;4924917;29;20195;-86
2021/11/05 12:45:20;;;;;;;2.17;1.60;;;;;;;;;;4938790;29;20180;-86
2021/11/05 12:48:41;;;;;;;4.20;3.13;;;;;;;;;;4928151;29;20179;-86
2021/11/05 12:51:48;;;;;;;2.33;2.07;;;;;;;;;;4929637;29;20216;-86
2021/11/05 12:54:59;;;;;;;2.00;1.40;;;;;;;;;;4929016;29;20183;-86
2021/11/05 12:58:06;;;;;;;1.57;1.00;;;;;;;;;;4934993;29;20527;-85
2021/11/05 13:01:19;;;;;;;1.10;1.00;;;;;;;;;;4935160;29;20188;-86
2021/11/05 13:04:26;;;;;;;1.20;1.10;;;;;;;;;;4924645;29;20211;-85
2021/11/05 13:07:30;;;;;;;2.07;1.40;;;;;;;;;;4924586;29;20184;-85
2021/11/05 13:10:42;;;;;;;1.50;1.40;;;;;;;;;;4934324;29;20203;-86
2021/11/05 13:13:54;;;;;;;6.37;5.73;;;;;;;;;;4924005;29;20211;-85
2021/11/05 13:17:00;;;;;;;4.90;4.50;;;;;;;;;;4957397;29;20195;-85
2021/11/05 13:20:18;;;;;;;3.53;2.80;;;;;;;;;;4923821;29;20199;-85
2021/11/05 13:23:22;;;;;;;4.03;2.73;;;;;;;;;;4923376;29;20231;-86
2021/11/05 13:26:33;;;;;;;3.20;2.73;;;;;;;;;;4923452;29;20551;-86
2021/11/05 13:29:38;;;;;;;3.10;2.80;;;;;;;;;;4924216;29;20187;-86
2021/11/05 13:32:42;;;;;;;7.77;3.33;;;;;;;;;;4923882;29;20235;-86
2021/11/05 13:35:49;;;;;;;4.03;2.87;;;;;;;;;;4934220;29;20203;-86
2021/11/05 13:38:53;;;;;;;3.20;2.90;;;;;;;;;;4923460;29;20187;-86
2021/11/05 13:41:58;;;;;;;3.47;2.93;;;;;;;;;;4945678;29;20178;-85
2021/11/05 13:45:11;;;;;;;3.60;2.77;;;;;;;;;;4923434;28;20184;-85
2021/11/05 13:48:18;;;;;;;2.83;2.53;;;;;;;;;;4945307;29;20176;-85
2021/11/05 13:51:24;;;;;;;4.27;2.90;;;;;;;;;;4934423;29;20184;-86
2021/11/05 13:54:30;;;;;;;2.20;2.00;;;;;;;;;;4923346;29;20180;-85
2021/11/05 13:57:40;;;;;;;3.30;2.33;;;;;;;;;;4923166;29;20195;-85
2021/11/05 14:00:44;;;;;;;2.63;2.13;;;;;;;;;;4934401;29;20532;-86
2021/11/05 14:03:55;;;;;;;2.90;2.07;;;;;;;;;;4923253;29;20211;-85
2021/11/05 14:06:59;;;;;;;3.23;2.50;;;;;;;;;;4923246;29;20651;-85
2021/11/05 14:10:04;;;;;;;3.03;2.37;;;;;;;;;;4923238;29;20191;-85
2021/11/05 14:13:09;;;;;;;2.33;1.93;;;;;;;;;;4933629;29;20234;-85
2021/11/05 14:16:13;;;;;;;2.43;2.23;;;;;;;;;;4934197;29;20183;-85
2021/11/05 14:19:31;;;;;;;3.53;2.40;;;;;;;;;;4944358;29;20203;-86
2021/11/05 14:22:35;;;;;;;3.40;2.47;;;;;;;;;;4922409;29;20227;-85
2021/11/05 14:25:39;;;;;;;2.80;2.50;;;;;;;;;;4944148;29;20176;-86
2021/11/05 14:28:43;;;;;;;3.57;3.10;;;;;;;;;;4922470;29;20203;-85
2021/11/05 14:32:05;;;;;;;3.57;3.00;;;;;;;;;;4922279;29;20199;-85
2021/11/05 14:35:22;;;;;;;3.70;2.63;;;;;;;;;;4922889;29;20188;-86
2021/11/05 14:38:28;;;;;;;3.93;2.67;;;;;;;;;;4933638;29;20183;-86
2021/11/05 14:41:32;;;;;;;5.27;3.23;;;;;;;;;;4922693;29;20184;-86
2021/11/05 14:44:37;;;;;;;2.80;2.50;;;;;;;;;;4944505;29;20621;-85
2021/11/05 14:47:43;;;;;;;4.93;2.07;;;;;;;;;;4922434;29;20187;-85
2021/11/05 14:50:50;;;;;;;2.10;1.90;;;;;;;;;;4922011;29;20180;-85
2021/11/05 14:53:55;;;;;;;3.03;2.73;;;;;;;;;;4922174;29;20235;-86
2021/11/05 14:57:18;;;;;;;3.40;3.03;;;;;;;;;;4945226;28;20183;-86
2021/11/05 15:00:28;;;;;;;3.07;2.50;;;;;;;;;;4926491;29;20188;-86
2021/11/05 15:03:34;;;;;;;3.93;2.53;;;;;;;;;;4936525;29;20224;-85
2021/11/05 15:06:41;;;;;;;3.20;2.37;;;;;;;;;;4926153;29;20524;-86
2021/11/05 15:09:45;;;;;;;2.40;2.20;;;;;;;;;;4925899;29;20203;-85
2021/11/05 15:12:50;;;;;;;2.80;2.50;;;;;;;;;;4936608;29;20235;-85
2021/11/05 15:15:57;;;;;;;3.13;2.47;;;;;;;;;;4925974;29;20184;-85
2021/11/05 15:19:02;;;;;;;7.90;5.20;;;;;;;;;;4936692;29;20179;-85
2021/11/05 15:22:07;;;;;;;11.07;6.23;;;;;;;;;;4947386;29;20180;-86
2021/11/05 15:25:11;;;;;;;9.03;6.17;;;;;;;;;;4936679;29;20179;-85
2021/11/05 15:28:15;;;;;;;5.47;4.00;;;;;;;;;;4935622;29;20195;-86
2021/11/05 15:31:19;;;;;;;5.07;3.93;;;;;;;;;;4949890;29;20179;-86
2021/11/05 15:34:23;;;;;;;6.40;3.63;;;;;;;;;;4926138;29;20234;-86
2021/11/05 15:37:27;;;;;;;4.27;3.40;;;;;;;;;;4924962;29;20207;-85
2021/11/05 15:40:32;;;;;;;4.43;3.27;;;;;;;;;;4925323;29;20179;-85
2021/11/05 15:43:37;;;;;;;4.30;3.30;;;;;;;;;;4935988;29;20219;-85
2021/11/05 15:46:41;;;;;;;6.27;3.23;;;;;;;;;;4925643;29;20184;-86
2021/11/05 15:49:45;;;;;;;4.80;2.50;;;;;;;;;;4925490;29;20195;-85
2021/11/05 15:52:50;;;;;;;3.63;2.50;;;;;;;;;;4925861;29;20235;-85
2021/11/05 15:55:54;;;;;;;4.67;2.87;;;;;;;;;;4925217;29;20187;-86
2021/11/05 15:58:58;;;;;;;3.30;3.00;;;;;;;;;;4925123;29;20180;-86
2021/11/05 16:02:03;;;;;;;3.50;3.13;;;;;;;;;;4924676;29;20183;-85
2021/11/05 16:05:08;;;;;;;2.30;2.10;;;;;;;;;;4924817;29;20176;-85
2021/11/05 16:08:13;;;;;;;2.43;2.10;;;;;;;;;;4923882;28;20192;-85
2021/11/05 16:11:17;;;;;;;4.00;1.90;;;;;;;;;;4935173;29;20642;-85
2021/11/05 16:14:23;;;;;;;5.10;2.03;;;;;;;;;;4946279;29;20227;-85
2021/11/05 16:17:27;;;;;;;4.00;2.00;;;;;;;;;;4946727;29;20180;-85
2021/11/05 16:20:31;;;;;;;3.50;2.10;;;;;;;;;;4935375;29;20199;-85
2021/11/05 16:23:35;;;;;;;5.80;2.60;;;;;;;;;;4924314;29;20223;-85
2021/11/05 16:26:42;;;;;;;2.97;2.27;;;;;;;;;;4935322;29;20183;-86
2021/11/05 16:29:48;;;;;;;3.03;2.23;;;;;;;;;;4935601;29;20187;-86
2021/11/05 16:32:52;;;;;;;3.87;2.17;;;;;;;;;;4946272;29;20606;-86
2021/11/05 16:35:56;;;;;;;4.37;2.40;;;;;;;;;;4935057;29;20184;-86
2021/11/05 16:39:00;;;;;;;2.33;2.03;;;;;;;;;;4924544;29;20187;-86
2021/11/05 16:42:06;;;;;;;2.73;2.30;;;;;;;;;;4935152;29;20179;-86
2021/11/05 16:45:12;;;;;;;5.43;2.63;;;;;;;;;;4945753;29;20655;-86
2021/11/05 16:48:18;;;;;;;3.60;2.73;;;;;;;;;;4934686;29;20203;-86
2021/11/05 16:51:25;;;;;;;2.93;2.63;;;;;;;;;;4936258;29;20183;-87
2021/11/05 16:54:29;;;;;;;4.13;3.17;;;;;;;;;;4924433;29;20203;-86
2021/11/05 16:57:34;;;;;;;4.33;3.50;;;;;;;;;;4924382;29;20520;-86
2021/11/05 17:00:38;;;;;;;3.67;3.37;;;;;;;;;;4945893;29;20196;-86
2021/11/05 17:03:43;;;;;;;3.43;3.10;;;;;;;;;;4923706;29;20682;-86
2021/11/05 17:06:48;;;;;;;4.40;3.50;;;;;;;;;;4946273;29;20635;-86
2021/11/05 17:09:53;;;;;;;5.17;3.17;;;;;;;;;;4934384;29;20195;-86
2021/11/05 17:12:57;;;;;;;3.70;3.30;;;;;;;;;;4923129;29;20227;-86
2021/11/05 17:16:01;;;;;;;3.43;3.13;;;;;;;;;;4934308;29;20654;-86
2021/11/05 17:19:07;;;;;;;4.00;3.07;;;;;;;;;;4934355;29;20187;-86
2021/11/05 17:22:11;;;;;;;3.07;2.67;;;;;;;;;;4933919;29;20203;-86
2021/11/05 17:25:16;;;;;;;3.60;2.80;;;;;;;;;;4972852;23;20223;-87
2021/11/05 17:28:21;;;;;;;3.23;2.90;;;;;;;;;;4952110;29;20200;-87
2021/11/05 17:31:28;;;;;;;3.97;3.30;;;;;;;;;;4951255;29;20188;-87
2021/11/05 17:34:32;;;;;;;4.13;3.73;;;;;;;;;;4960427;28;20235;-87
2021/11/05 17:37:37;;;;;;;4.67;3.90;;;;;;;;;;4971117;28;20179;-87
2021/11/05 17:40:42;;;;;;;4.70;3.33;;;;;;;;;;4971447;28;20183;-87
2021/11/05 17:43:50;;;;;;;5.33;3.73;;;;;;;;;;4959457;28;20219;-87
2021/11/05 17:46:55;;;;;;;4.03;3.63;;;;;;;;;;4971016;28;20187;-87
2021/11/05 17:50:00;;;;;;;4.67;3.70;;;;;;;;;;4959678;28;20183;-87
2021/11/05 17:53:05;;;;;;;4.20;3.13;;;;;;;;;;4971387;28;20219;-87
2021/11/05 17:56:09;;;;;;;3.20;2.83;;;;;;;;;;4958928;28;20183;-87
2021/11/05 17:59:15;;;;;;;3.53;3.17;;;;;;;;;;4959647;28;20183;-87
2021/11/05 18:02:22;;;;;;;3.33;2.80;;;;;;;;;;4971191;28;20179;-87
2021/11/05 18:05:27;;;;;;;4.07;3.07;;;;;;;;;;4959450;28;20617;-88
2021/11/05 18:08:31;;;;;;;3.97;3.10;;;;;;;;;;4959211;28;20183;-87
2021/11/05 18:11:38;;;;;;;3.20;2.70;;;;;;;;;;4959465;28;20182;-87
2021/11/05 18:14:43;;;;;;;9.40;4.40;;;;;;;;;;4959298;28;20230;-87
2021/11/05 18:17:48;;;;;;;6.47;4.40;;;;;;;;;;4957837;28;20178;-87
2021/11/05 18:20:54;;;;;;;11.97;7.30;;;;;;;;;;4958520;28;20198;-87
2021/11/05 18:23:59;;;;;;;41.37;19.57;;;;;;;;;;4959381;28;20226;-87
2021/11/05 18:27:05;;;;;;;39.13;22.10;;;;;;;;;;4959472;28;20179;-87
2021/11/05 18:30:12;;;;;;;24.97;14.03;;;;;;;;;;4960519;28;20186;-87
2021/11/05 18:33:18;;;;;;;17.53;10.30;;;;;;;;;;4962457;28;20210;-87